Time;durP1;ratioP1;P1;durP2;ratioP2;P2;SDS_P1;SDS_P2;PMS_P1;PMS_P2;Temp;Humidity;BMP_temperature;BMP_pressure;BME280_temperature;BME280_humidity;BME280_pressure;Samples;Min_cycle;Max_cycle;Signal;HPM_P1;HPM_P2
2022/04/06 00:01:35;;;;;;;34.85;7.32;;;;;;;9.38;100.00;100396.72;5008809;28;20390;-68
2022/04/06 00:04:01;;;;;;;36.05;5.97;;;;;;;9.39;100.00;100398.50;5015037;28;20106;-69
2022/04/06 00:06:26;;;;;;;27.95;6.50;;;;;;;9.37;100.00;100400.25;5013538;28;20108;-68
2022/04/06 00:08:51;;;;;;;36.05;5.63;;;;;;;9.40;100.00;100389.78;5014191;28;20022;-68
2022/04/06 00:11:17;;;;;;;28.40;4.95;;;;;;;9.40;100.00;100388.88;5012917;28;20393;-69
2022/04/06 00:13:42;;;;;;;29.60;5.43;;;;;;;9.41;100.00;100386.28;5014474;28;20037;-68
2022/04/06 00:16:07;;;;;;;31.63;5.70;;;;;;;9.41;100.00;100372.25;5015149;28;20477;-68
2022/04/06 00:18:33;;;;;;;23.45;5.25;;;;;;;9.49;100.00;100385.50;5013374;28;20038;-68
2022/04/06 00:20:58;;;;;;;35.95;6.95;;;;;;;9.48;100.00;100378.47;5014408;28;20057;-68
2022/04/06 00:23:23;;;;;;;32.65;6.28;;;;;;;9.52;100.00;100373.31;5017276;28;20482;-69
2022/04/06 00:25:50;;;;;;;28.05;6.47;;;;;;;9.48;100.00;100373.22;5011963;28;20176;-68
2022/04/06 00:28:15;;;;;;;27.98;6.18;;;;;;;9.51;100.00;100365.38;5013592;28;20106;-68
2022/04/06 00:30:40;;;;;;;30.13;5.90;;;;;;;9.55;100.00;100369.81;5016753;28;20377;-70
2022/04/06 00:33:06;;;;;;;23.50;5.82;;;;;;;9.56;100.00;100377.72;5012335;28;20030;-68
2022/04/06 00:35:32;;;;;;;25.38;5.72;;;;;;;9.62;100.00;100369.03;5020264;28;20021;-68
2022/04/06 00:38:05;;;;;;;25.48;4.88;;;;;;;9.61;100.00;100365.50;5014857;28;20041;-68
2022/04/06 00:40:32;;;;;;;;;;;;;;;9.60;100.00;100360.25;5017379;28;20052;-68
2022/04/06 00:42:58;;;;;;;28.17;4.72;;;;;;;9.61;100.00;100356.75;5015310;28;19913;-69
2022/04/06 00:45:24;;;;;;;21.58;5.00;;;;;;;9.62;100.00;100358.53;5014612;28;20032;-68
2022/04/06 00:47:51;;;;;;;24.88;5.07;;;;;;;9.64;100.00;100354.16;5013749;28;20076;-68
2022/04/06 00:50:17;;;;;;;35.22;5.40;;;;;;;9.65;100.00;100347.19;5013248;28;20427;-68
2022/04/06 00:52:43;;;;;;;16.70;4.28;;;;;;;9.65;100.00;100353.31;5014678;28;20497;-68
2022/04/06 00:55:09;;;;;;;20.35;4.40;;;;;;;9.74;100.00;100331.50;4995234;28;20029;-68
2022/04/06 00:57:35;;;;;;;23.80;5.15;;;;;;;9.74;100.00;100344.66;5013789;28;20064;-68
2022/04/06 01:00:02;;;;;;;26.35;4.82;;;;;;;9.77;100.00;100337.69;5013673;28;20108;-68
2022/04/06 01:02:27;;;;;;;17.70;4.38;;;;;;;9.77;100.00;100336.81;5012290;28;20041;-68
2022/04/06 01:04:52;;;;;;;17.00;3.75;;;;;;;9.82;100.00;100339.50;5012935;28;20021;-68
2022/04/06 01:07:19;;;;;;;15.07;3.00;;;;;;;9.86;100.00;100330.78;5018530;28;20029;-68
2022/04/06 01:09:46;;;;;;;14.43;2.70;;;;;;;9.87;100.00;100322.03;5016006;28;20017;-68
2022/04/06 01:12:12;;;;;;;13.48;3.47;;;;;;;9.88;100.00;100324.69;5012568;28;20034;-68
2022/04/06 01:14:39;;;;;;;13.07;2.40;;;;;;;9.85;100.00;100316.75;5011407;28;20072;-68
2022/04/06 01:17:07;;;;;;;14.40;4.05;;;;;;;9.83;100.00;100322.88;5013689;28;20080;-69
2022/04/06 01:19:34;;;;;;;16.85;2.88;;;;;;;9.82;100.00;100328.97;5011559;28;20042;-69
2022/04/06 01:22:00;;;;;;;18.45;3.05;;;;;;;9.81;100.00;100311.44;5012035;28;20129;-68
2022/04/06 01:24:26;;;;;;;14.38;2.63;;;;;;;9.77;100.00;100311.41;5014727;28;20033;-68
2022/04/06 01:26:52;;;;;;;16.27;3.15;;;;;;;9.75;100.00;100314.88;5009882;28;20168;-68
2022/04/06 01:29:17;;;;;;;13.85;3.40;;;;;;;9.76;100.00;100321.91;5013685;28;20567;-68
2022/04/06 01:31:43;;;;;;;13.95;3.20;;;;;;;9.78;100.00;100320.19;5004073;28;20030;-68
2022/04/06 01:34:08;;;;;;;14.18;3.17;;;;;;;9.78;100.00;100310.56;5011672;28;20149;-69
2022/04/06 01:36:33;;;;;;;8.85;2.83;;;;;;;9.81;100.00;100320.22;5013437;28;20071;-68
2022/04/06 01:38:59;;;;;;;12.90;2.45;;;;;;;9.78;100.00;100312.31;5012498;28;20033;-68
2022/04/06 01:41:33;;;;;;;10.15;2.83;;;;;;;9.75;100.00;100314.88;5013477;28;20534;-68
2022/04/06 01:43:59;;;;;;;15.63;2.55;;;;;;;9.71;100.00;100320.97;5012847;28;20028;-69
2022/04/06 01:46:24;;;;;;;13.82;3.42;;;;;;;9.68;100.00;100316.56;5013399;28;20477;-68
2022/04/06 01:54:22;;;;;;;22.67;3.45;;;;;;;9.62;100.00;100309.50;5012801;28;20032;-69
2022/04/06 01:56:47;;;;;;;17.92;3.53;;;;;;;9.64;100.00;100314.75;5013453;28;20401;-69
2022/04/06 01:59:12;;;;;;;16.85;2.80;;;;;;;9.62;100.00;100319.13;5017246;28;20060;-69
2022/04/06 02:01:37;;;;;;;17.63;3.33;;;;;;;9.61;100.00;100306.84;5013452;28;20036;-69
2022/04/06 02:04:06;;;;;;;18.15;3.20;;;;;;;9.60;100.00;100307.72;5011657;28;20026;-69
2022/04/06 02:06:32;;;;;;;11.50;2.72;;;;;;;9.66;100.00;100307.81;5014381;28;20025;-69
2022/04/06 02:08:57;;;;;;;13.57;2.58;;;;;;;9.63;100.00;100297.25;5011337;28;20652;-69
2022/04/06 02:11:23;;;;;;;18.00;2.95;;;;;;;9.59;100.00;100304.22;5013399;28;20034;-68
2022/04/06 02:13:48;;;;;;;18.60;3.88;;;;;;;9.60;100.00;100297.22;5006815;28;20022;-69
2022/04/06 02:16:13;;;;;;;12.35;3.05;;;;;;;9.60;100.00;100294.56;5012816;28;20501;-69
2022/04/06 02:18:39;;;;;;;9.85;3.28;;;;;;;9.55;100.00;100299.78;5013537;28;20053;-69
2022/04/06 02:21:04;;;;;;;15.32;2.65;;;;;;;9.54;100.00;100291.91;4995134;28;20050;-69
2022/04/06 02:23:29;;;;;;;9.48;2.83;;;;;;;9.52;100.00;100293.59;5012808;28;20040;-69
2022/04/06 02:25:55;;;;;;;13.50;2.35;;;;;;;9.52;100.00;100293.59;5014898;28;20026;-69
2022/04/06 02:28:20;;;;;;;13.95;2.70;;;;;;;9.54;100.00;100286.66;5012284;28;20037;-69
2022/04/06 02:30:45;;;;;;;16.25;2.70;;;;;;;9.47;100.00;100279.53;5010484;28;20033;-68
2022/04/06 02:33:10;;;;;;;11.68;2.55;;;;;;;9.51;100.00;100281.34;5011594;28;20632;-69
2022/04/06 02:35:36;;;;;;;14.55;2.55;;;;;;;9.44;100.00;100268.16;5010514;28;20037;-68
2022/04/06 02:38:01;;;;;;;11.65;2.28;;;;;;;9.47;100.00;100269.94;5008058;28;20508;-69
2022/04/06 02:40:26;;;;;;;9.52;2.40;;;;;;;9.45;100.00;100261.13;5013456;28;20030;-69
2022/04/06 02:42:52;;;;;;;14.82;2.97;;;;;;;9.43;100.00;100266.38;5011303;28;20022;-69
2022/04/06 02:45:17;;;;;;;9.40;2.00;;;;;;;9.35;99.88;100256.66;5012342;28;20022;-69
2022/04/06 02:47:42;;;;;;;11.88;2.58;;;;;;;9.39;100.00;100266.34;4994425;28;20036;-69
2022/04/06 02:50:08;;;;;;;8.07;2.28;;;;;;;9.34;99.44;100258.38;5011834;28;20041;-69
2022/04/06 02:52:33;;;;;;;11.95;3.00;;;;;;;9.32;99.42;100262.75;5013896;28;20156;-69
2022/04/06 02:54:58;;;;;;;7.13;2.50;;;;;;;9.32;99.36;100260.13;5011466;28;20057;-69
2022/04/06 02:57:24;;;;;;;19.92;2.85;;;;;;;9.34;99.07;100253.13;5011529;28;20522;-69
2022/04/06 02:59:49;;;;;;;10.60;1.90;;;;;;;9.26;99.82;100245.19;5011989;28;20492;-69
2022/04/06 03:02:14;;;;;;;7.13;1.90;;;;;;;9.25;100.00;100232.91;5012419;28;20094;-69
2022/04/06 03:04:40;;;;;;;9.38;1.95;;;;;;;9.21;100.00;100243.34;5010424;28;20022;-69
2022/04/06 03:07:05;;;;;;;9.40;1.77;;;;;;;9.15;100.00;100243.28;5015141;28;20037;-68
2022/04/06 03:09:30;;;;;;;15.02;2.30;;;;;;;9.15;100.00;100241.53;5010271;28;21873;-69
2022/04/06 03:11:56;;;;;;;9.57;1.88;;;;;;;9.12;100.00;100236.25;5008094;28;20100;-69
2022/04/06 03:14:21;;;;;;;11.00;1.70;;;;;;;9.09;100.00;100226.59;5010939;28;20165;-69
2022/04/06 03:16:46;;;;;;;9.13;1.95;;;;;;;9.12;100.00;100225.75;5013550;28;20030;-69
2022/04/06 03:19:12;;;;;;;10.38;1.88;;;;;;;9.11;100.00;100229.22;5015182;28;20072;-69
2022/04/06 03:21:37;;;;;;;7.25;1.48;;;;;;;9.07;100.00;100236.16;4987071;28;20050;-69
2022/04/06 03:24:02;;;;;;;8.13;1.70;;;;;;;9.09;100.00;100242.34;5013471;28;20038;-69
2022/04/06 03:26:28;;;;;;;12.73;1.80;;;;;;;9.11;100.00;100230.13;5017290;28;20597;-69
2022/04/06 03:28:53;;;;;;;8.13;1.63;;;;;;;9.14;100.00;100228.38;5009376;28;20034;-69
2022/04/06 03:31:19;;;;;;;8.32;2.20;;;;;;;9.07;100.00;100244.03;5015395;28;20026;-68
2022/04/06 03:33:44;;;;;;;14.80;1.80;;;;;;;9.03;100.00;100228.25;5010541;28;20108;-68
2022/04/06 03:36:09;;;;;;;13.07;1.73;;;;;;;9.01;100.00;100228.22;5016966;28;20053;-68
2022/04/06 03:38:35;;;;;;;8.02;1.80;;;;;;;9.05;100.00;100219.53;5019376;28;20363;-69
2022/04/06 03:41:00;;;;;;;9.43;2.45;;;;;;;9.01;100.00;100222.13;5008363;28;20446;-68
2022/04/06 03:43:26;;;;;;;5.40;1.50;;;;;;;8.99;100.00;100208.94;5011776;28;20465;-68
2022/04/06 03:45:51;;;;;;;7.85;1.90;;;;;;;8.97;100.00;100200.19;5005706;28;20417;-68
2022/04/06 03:48:16;;;;;;;17.08;2.10;;;;;;;8.97;100.00;100199.28;5011944;28;20450;-67
2022/04/06 03:50:42;;;;;;;12.05;2.33;;;;;;;8.92;100.00;100199.25;5012213;28;20494;-68
2022/04/06 03:53:07;;;;;;;12.63;1.75;;;;;;;8.95;100.00;100207.16;5016234;28;20048;-68
2022/04/06 03:55:32;;;;;;;14.25;2.15;;;;;;;8.96;100.00;100193.19;5012223;28;20464;-68
2022/04/06 03:57:58;;;;;;;19.33;2.33;;;;;;;8.92;100.00;100196.63;5014675;28;20026;-68
2022/04/06 04:00:23;;;;;;;19.35;2.05;;;;;;;8.91;100.00;100208.88;5015949;28;20040;-68
2022/04/06 04:02:49;;;;;;;12.80;2.20;;;;;;;8.86;100.00;100193.94;5010559;28;20371;-68
2022/04/06 04:05:15;;;;;;;11.27;2.20;;;;;;;8.86;100.00;100197.44;5015767;28;20034;-68
2022/04/06 04:07:40;;;;;;;18.02;2.92;;;;;;;8.77;100.00;100198.16;5026818;28;20112;-68
2022/04/06 04:10:10;;;;;;;20.77;2.58;;;;;;;8.77;100.00;100192.94;5015045;28;20450;-68
2022/04/06 04:12:36;;;;;;;11.35;2.60;;;;;;;8.78;100.00;100184.19;5015143;28;20038;-68
2022/04/06 04:15:03;;;;;;;17.70;2.92;;;;;;;8.75;100.00;100192.03;5010552;28;20034;-68
2022/04/06 04:17:28;;;;;;;20.85;2.45;;;;;;;8.75;100.00;100184.16;5012815;28;20037;-68
2022/04/06 04:19:54;;;;;;;17.70;3.00;;;;;;;8.72;100.00;100188.47;5013544;28;20387;-68
2022/04/06 04:22:19;;;;;;;21.38;2.92;;;;;;;8.80;100.00;100192.09;5012105;28;20029;-68
2022/04/06 04:24:44;;;;;;;25.92;3.58;;;;;;;8.70;100.00;100183.22;5012996;28;20033;-67
2022/04/06 04:27:09;;;;;;;21.85;5.47;;;;;;;8.73;100.00;100183.25;5012951;28;20120;-67
2022/04/06 04:29:35;;;;;;;23.50;3.30;;;;;;;8.77;100.00;100182.44;5013527;28;20458;-68
2022/04/06 04:32:00;;;;;;;14.77;3.47;;;;;;;8.78;100.00;100168.47;5014204;28;20032;-68
2022/04/06 04:34:25;;;;;;;12.60;2.47;;;;;;;8.81;100.00;100172.00;5011000;28;20041;-68
2022/04/06 04:36:52;;;;;;;20.02;3.03;;;;;;;8.83;100.00;100175.50;5014705;28;20048;-68
2022/04/06 04:39:18;;;;;;;17.80;2.42;;;;;;;8.85;100.00;100164.19;5012133;28;20092;-68
2022/04/06 04:41:45;;;;;;;13.45;2.55;;;;;;;8.86;100.00;100165.94;5013524;28;20053;-68
2022/04/06 04:44:10;;;;;;;12.35;2.80;;;;;;;8.84;100.00;100156.28;5016008;28;20433;-68
2022/04/06 04:46:35;;;;;;;17.58;2.50;;;;;;;8.85;100.00;100153.69;5014399;28;20029;-67
2022/04/06 04:49:01;;;;;;;19.17;2.28;;;;;;;8.89;100.00;100155.47;5009554;28;20053;-68
2022/04/06 04:51:28;;;;;;;21.33;2.53;;;;;;;8.88;100.00;100163.34;4995718;28;20117;-68
2022/04/06 04:53:54;;;;;;;12.05;2.17;;;;;;;8.92;100.00;100159.88;5012920;28;20013;-67
2022/04/06 04:56:19;;;;;;;16.33;3.15;;;;;;;8.95;100.00;100154.66;5014034;28;20022;-68
2022/04/06 04:58:45;;;;;;;16.38;3.05;;;;;;;8.99;100.00;100160.84;5012449;28;20390;-68
2022/04/06 05:01:10;;;;;;;22.13;3.30;;;;;;;9.03;100.00;100153.00;5011895;28;20069;-68
2022/04/06 05:03:35;;;;;;;15.50;2.35;;;;;;;9.03;100.00;100157.41;5013151;28;20025;-68
2022/04/06 05:06:00;;;;;;;18.70;2.53;;;;;;;9.05;100.00;100155.69;5013000;28;20034;-68
2022/04/06 05:08:26;;;;;;;15.15;2.75;;;;;;;9.06;100.00;100145.19;5013189;28;20377;-68
2022/04/06 05:10:51;;;;;;;13.57;2.30;;;;;;;9.05;100.00;100150.44;5013233;28;20036;-68
2022/04/06 05:13:20;;;;;;;16.00;2.80;;;;;;;9.08;100.00;100151.31;5013684;28;20044;-68
2022/04/06 05:15:46;;;;;;;15.60;2.95;;;;;;;9.07;100.00;100143.44;5013638;28;20041;-69
2022/04/06 05:18:12;;;;;;;19.30;2.53;;;;;;;9.05;100.00;100135.56;5012168;28;20382;-69
2022/04/06 05:20:37;;;;;;;15.23;2.58;;;;;;;9.06;100.00;100137.31;5011710;28;20050;-69
2022/04/06 05:23:02;;;;;;;16.20;3.25;;;;;;;9.09;100.00;100126.84;5009356;28;20498;-69
2022/04/06 05:25:28;;;;;;;15.40;2.40;;;;;;;9.08;100.00;100138.22;5010236;28;20135;-69
2022/04/06 05:27:55;;;;;;;17.10;2.60;;;;;;;9.13;100.00;100132.13;5012003;28;20033;-68
2022/04/06 05:30:25;;;;;;;15.98;2.50;;;;;;;9.11;100.00;100137.38;5012392;28;20018;-68
2022/04/06 05:32:54;;;;;;;19.30;3.30;;;;;;;9.14;100.00;100139.16;5010311;28;20025;-69
2022/04/06 05:35:23;;;;;;;21.40;2.80;;;;;;;9.09;100.00;100139.09;5012291;28;20117;-70
2022/04/06 05:37:49;;;;;;;18.70;2.30;;;;;;;9.09;100.00;100145.22;5011615;28;20055;-68
2022/04/06 05:40:16;;;;;;;12.13;2.13;;;;;;;9.11;100.00;100130.38;5015720;28;20465;-73
2022/04/06 05:42:42;;;;;;;23.30;2.88;;;;;;;9.11;100.00;100140.00;4990169;28;20049;-73
2022/04/06 05:45:08;;;;;;;14.68;2.33;;;;;;;9.14;100.00;100133.91;5011982;28;20092;-73
2022/04/06 05:47:34;;;;;;;8.85;2.00;;;;;;;9.17;100.00;100144.41;5008590;28;20037;-74
2022/04/06 05:50:00;;;;;;;13.00;2.28;;;;;;;9.15;100.00;100140.91;5007728;28;20029;-73
2022/04/06 05:52:26;;;;;;;15.68;2.22;;;;;;;9.18;100.00;100125.19;5008882;28;20029;-74
2022/04/06 05:54:51;;;;;;;11.93;2.10;;;;;;;9.18;100.00;100135.69;5010924;28;20466;-73
2022/04/06 05:57:17;;;;;;;17.17;2.20;;;;;;;9.16;100.00;100133.06;5008259;28;20040;-74
2022/04/06 05:59:44;;;;;;;9.07;2.33;;;;;;;9.20;100.00;100123.47;5011837;28;20489;-73
2022/04/06 06:02:10;;;;;;;14.93;2.88;;;;;;;9.21;100.00;100135.72;5009675;28;20026;-74
2022/04/06 06:04:35;;;;;;;15.52;3.10;;;;;;;9.24;100.00;100118.25;5011876;28;20045;-74
2022/04/06 06:07:01;;;;;;;9.07;3.05;;;;;;;9.28;100.00;100121.81;5012848;28;20440;-73
2022/04/06 06:09:29;;;;;;;12.40;2.10;;;;;;;9.29;100.00;100113.03;5012215;28;20469;-72
2022/04/06 06:11:57;;;;;;;14.40;3.25;;;;;;;9.29;100.00;100120.91;5012467;28;20500;-72
2022/04/06 06:14:22;;;;;;;13.25;2.08;;;;;;;9.31;100.00;100113.94;4995203;28;20026;-72
2022/04/06 06:16:49;;;;;;;13.07;2.60;;;;;;;9.29;100.00;100120.91;5014256;28;20041;-74
2022/04/06 06:19:14;;;;;;;14.57;2.40;;;;;;;9.26;100.00;100107.78;5012593;28;20125;-72
2022/04/06 06:21:40;;;;;;;14.93;2.58;;;;;;;9.31;100.00;100111.31;5012786;28;20106;-73
2022/04/06 06:24:06;;;;;;;13.55;2.08;;;;;;;9.32;100.00;100106.94;4993820;28;20512;-73
2022/04/06 06:26:33;;;;;;;8.63;1.95;;;;;;;9.35;99.48;100101.75;5009431;28;20528;-74
2022/04/06 06:28:58;;;;;;;8.90;2.17;;;;;;;9.34;100.00;100111.34;5010915;28;20044;-73
2022/04/06 06:31:25;;;;;;;15.25;2.63;;;;;;;9.37;100.00;100105.25;5011360;28;20030;-74
2022/04/06 06:33:51;;;;;;;13.20;2.00;;;;;;;9.43;100.00;100106.19;4992828;28;20449;-73
2022/04/06 06:36:16;;;;;;;16.10;2.78;;;;;;;9.42;100.00;100098.31;5006208;28;20023;-70
2022/04/06 06:38:41;;;;;;;14.48;2.55;;;;;;;9.44;100.00;100105.34;5011948;28;20089;-73
2022/04/06 06:41:07;;;;;;;13.60;2.53;;;;;;;9.48;100.00;100113.22;5012727;28;20026;-73
2022/04/06 06:43:32;;;;;;;13.95;2.53;;;;;;;9.42;100.00;100112.28;5012785;28;20525;-71
2022/04/06 06:45:57;;;;;;;8.27;1.98;;;;;;;9.38;100.00;100101.78;5013102;28;20118;-72
2022/04/06 06:48:23;;;;;;;13.40;2.05;;;;;;;9.26;100.00;100092.91;4994220;28;20036;-73
2022/04/06 06:50:48;;;;;;;9.38;1.88;;;;;;;9.17;100.00;100102.41;4993899;28;20053;-72
2022/04/06 06:53:13;;;;;;;12.15;1.80;;;;;;;9.05;100.00;100093.56;4975650;28;20113;-72
2022/04/06 06:55:39;;;;;;;19.77;1.90;;;;;;;8.98;100.00;100112.75;5008258;28;20374;-71
2022/04/06 06:58:04;;;;;;;11.40;2.20;;;;;;;8.96;100.00;100103.97;4983468;28;20037;-72
2022/04/06 07:00:30;;;;;;;14.38;2.15;;;;;;;8.92;100.00;100112.66;4992248;28;20057;-71
2022/04/06 07:02:56;;;;;;;13.18;2.60;;;;;;;8.83;100.00;100120.41;5006311;28;20044;-72
2022/04/06 07:05:22;;;;;;;18.80;2.38;;;;;;;8.68;100.00;100108.91;5012140;28;20057;-72
2022/04/06 07:07:52;;;;;;;17.75;2.22;;;;;;;8.61;100.00;100107.03;5014411;28;20861;-73
2022/04/06 07:10:19;;;;;;;17.33;2.20;;;;;;;8.58;100.00;100091.28;5012335;28;20022;-72
2022/04/06 07:12:44;;;;;;;14.02;2.60;;;;;;;8.60;100.00;100094.81;5007686;28;20121;-72
2022/04/06 07:15:10;;;;;;;9.68;2.28;;;;;;;8.62;100.00;100093.06;4991755;28;20030;-72
2022/04/06 07:17:35;;;;;;;15.25;2.65;;;;;;;8.67;100.00;100099.25;4990466;28;20083;-72
2022/04/06 07:20:00;;;;;;;19.27;2.30;;;;;;;8.72;100.00;100092.34;5013055;28;20058;-73
2022/04/06 07:22:26;;;;;;;17.45;2.72;;;;;;;8.76;100.00;100091.50;5014949;28;20030;-72
2022/04/06 07:24:51;;;;;;;15.30;3.25;;;;;;;8.73;100.00;100095.81;5006362;28;20025;-72
2022/04/06 07:27:21;;;;;;;16.90;3.55;;;;;;;8.64;100.00;100098.34;4988119;28;20120;-73
2022/04/06 07:29:46;;;;;;;16.73;2.67;;;;;;;8.52;100.00;100099.03;4998024;28;20025;-72
2022/04/06 07:32:11;;;;;;;25.08;3.00;;;;;;;8.47;100.00;100090.28;5012321;28;20030;-72
2022/04/06 07:34:37;;;;;;;25.15;3.72;;;;;;;8.40;100.00;100087.53;4999297;28;20466;-73
2022/04/06 07:37:02;;;;;;;15.77;2.63;;;;;;;8.42;100.00;100088.44;5007892;28;20083;-73
2022/04/06 07:39:27;;;;;;;19.30;3.10;;;;;;;8.41;100.00;100078.81;4997410;28;20108;-71
2022/04/06 07:41:56;;;;;;;20.58;4.88;;;;;;;8.43;100.00;100082.31;5015785;28;20064;-72
2022/04/06 07:44:24;;;;;;;16.67;2.80;;;;;;;8.50;100.00;100062.31;5015733;28;20034;-72
2022/04/06 07:46:50;;;;;;;18.50;2.80;;;;;;;8.54;100.00;100082.47;5015871;28;20061;-72
2022/04/06 07:49:19;;;;;;;25.95;3.85;;;;;;;8.62;100.00;100069.47;5014763;28;20030;-73
2022/04/06 07:51:45;;;;;;;23.75;3.75;;;;;;;8.68;100.00;100072.19;5016126;28;20029;-73
2022/04/06 07:54:11;;;;;;;20.52;2.92;;;;;;;8.73;100.00;100066.97;5014513;28;20428;-73
2022/04/06 07:56:38;;;;;;;25.25;3.20;;;;;;;8.80;100.00;100065.31;5015523;28;20034;-73
2022/04/06 07:59:03;;;;;;;21.77;4.75;;;;;;;8.83;100.00;100057.47;5014483;28;20041;-72
2022/04/06 08:01:28;;;;;;;26.27;4.65;;;;;;;8.90;100.00;100056.69;5015412;28;20386;-73
2022/04/06 08:03:54;;;;;;;27.02;3.83;;;;;;;8.94;100.00;100064.59;4998076;28;20477;-73
2022/04/06 08:06:19;;;;;;;16.27;2.97;;;;;;;8.97;100.00;100061.13;5015129;28;20018;-73
2022/04/06 08:08:45;;;;;;;25.50;3.33;;;;;;;9.00;100.00;100062.91;5015415;28;20026;-72
2022/04/06 08:11:10;;;;;;;23.17;3.55;;;;;;;9.00;100.00;100069.00;4997441;28;20029;-72
2022/04/06 08:13:35;;;;;;;19.35;3.25;;;;;;;9.03;100.00;100058.53;4996535;28;20513;-72
2022/04/06 08:16:01;;;;;;;22.00;3.28;;;;;;;9.08;100.00;100062.09;5015253;28;20026;-72
2022/04/06 08:18:26;;;;;;;17.75;3.05;;;;;;;9.10;100.00;100065.63;5015130;28;20030;-72
2022/04/06 08:20:52;;;;;;;23.08;3.50;;;;;;;9.10;100.00;100054.22;5019972;28;20503;-72
2022/04/06 08:23:19;;;;;;;26.95;3.78;;;;;;;9.09;100.00;100055.13;4997273;28;20026;-71
2022/04/06 08:25:44;;;;;;;20.77;3.33;;;;;;;9.04;100.00;100049.81;5016346;28;20626;-71
2022/04/06 08:28:10;;;;;;;22.42;3.88;;;;;;;8.98;100.00;100055.00;5018869;28;20095;-72
2022/04/06 08:30:40;;;;;;;30.33;3.72;;;;;;;8.96;100.00;100051.47;5015079;28;20133;-72
2022/04/06 08:33:06;;;;;;;24.38;3.80;;;;;;;8.98;100.00;100048.88;5013110;28;20128;-72
2022/04/06 08:35:31;;;;;;;24.60;4.65;;;;;;;9.01;100.00;100049.78;5006240;28;20025;-73
2022/04/06 08:37:57;;;;;;;23.83;3.38;;;;;;;9.03;100.00;100041.94;5014699;28;20104;-72
2022/04/06 08:40:23;;;;;;;16.42;3.22;;;;;;;9.06;100.00;100041.94;5015163;28;20026;-75
2022/04/06 08:42:49;;;;;;;25.85;3.65;;;;;;;9.05;100.00;100034.97;5018427;28;20437;-73
2022/04/06 08:45:16;;;;;;;20.98;4.60;;;;;;;9.07;100.00;100039.34;5015294;28;20056;-72
2022/04/06 08:47:42;;;;;;;24.27;4.35;;;;;;;9.14;100.00;100036.78;5014022;28;20030;-72
2022/04/06 08:50:07;;;;;;;21.35;4.22;;;;;;;9.17;100.00;100039.44;5014771;28;20025;-72
2022/04/06 08:52:34;;;;;;;29.45;4.47;;;;;;;9.18;100.00;100026.31;5014787;28;20462;-73
2022/04/06 08:55:00;;;;;;;21.63;3.80;;;;;;;9.20;100.00;100021.09;5020595;28;20045;-73
2022/04/06 08:57:26;;;;;;;19.40;5.20;;;;;;;9.27;100.00;100026.41;5020718;28;20124;-72
2022/04/06 08:59:52;;;;;;;23.35;4.30;;;;;;;9.37;100.00;100027.38;5020937;28;20025;-73
2022/04/06 09:02:23;;;;;;;26.02;4.35;;;;;;;9.43;100.00;100029.16;4996917;28;20084;-72
2022/04/06 09:04:52;;;;;;;25.52;4.75;;;;;;;9.53;100.00;100024.88;5014487;28;20113;-73
2022/04/06 09:07:21;;;;;;;29.55;4.78;;;;;;;9.62;100.00;100028.44;4996777;28;20053;-72
2022/04/06 09:09:54;;;;;;;27.23;4.03;;;;;;;9.67;100.00;100028.47;5014387;28;20030;-72
2022/04/06 09:12:22;;;;;;;25.58;5.35;;;;;;;9.71;100.00;100026.72;5014319;28;20100;-72
2022/04/06 09:14:48;;;;;;;30.42;4.75;;;;;;;9.73;100.00;100020.63;5014433;28;20446;-72
2022/04/06 09:17:19;;;;;;;18.90;4.50;;;;;;;9.82;100.00;100030.34;5014047;28;20030;-73
2022/04/06 09:19:47;;;;;;;22.98;3.67;;;;;;;9.86;100.00;100033.84;5014285;28;20042;-73
2022/04/06 09:22:13;;;;;;;18.20;2.97;;;;;;;9.86;100.00;100029.47;5014301;28;20041;-73
2022/04/06 09:24:38;;;;;;;21.52;3.72;;;;;;;9.92;100.00;100013.72;4996507;28;20034;-73
2022/04/06 09:27:04;;;;;;;24.90;4.55;;;;;;;9.99;100.00;100032.19;5014090;28;20026;-72
2022/04/06 09:29:35;;;;;;;34.40;4.25;;;;;;;10.04;100.00;100031.31;5014127;28;20014;-73
2022/04/06 09:32:08;;;;;;;26.65;3.95;;;;;;;9.99;100.00;100019.91;5014115;28;20028;-72
2022/04/06 09:34:34;;;;;;;21.60;6.30;;;;;;;10.01;100.00;100020.81;5014133;28;20025;-72
2022/04/06 09:37:27;;;;;;;26.15;4.72;;;;;;;10.11;100.00;100033.09;5013663;28;20366;-72
2022/04/06 09:39:56;;;;;;;23.90;3.43;;;;;;;10.15;100.00;100023.50;5013957;28;20359;-73
2022/04/06 09:42:26;;;;;;;22.35;3.38;;;;;;;10.22;100.00;100048.06;5013963;28;20316;-72
2022/04/06 09:47:38;;;;;;;22.42;3.83;;;;;;;10.38;100.00;100014.88;5014113;28;20121;-72
2022/04/06 09:50:12;;;;;;;20.17;4.15;;;;;;;10.44;100.00;100007.91;5012592;28;20057;-72
2022/04/06 09:52:38;;;;;;;21.25;4.68;;;;;;;10.49;100.00;100012.28;5019888;28;20035;-72
2022/04/06 09:55:08;;;;;;;14.77;3.08;;;;;;;10.55;100.00;100001.78;5000183;28;20105;-72
2022/04/06 09:57:47;;;;;;;23.95;4.18;;;;;;;10.59;100.00;100006.16;5013649;28;20034;-72
2022/04/06 10:00:21;;;;;;;21.38;3.03;;;;;;;10.73;100.00;99991.31;5012513;28;20026;-73
2022/04/06 10:03:06;;;;;;;21.80;2.88;;;;;;;10.74;100.00;100003.59;5011314;28;20041;-73
2022/04/06 10:05:33;;;;;;;21.67;3.20;;;;;;;10.75;100.00;99992.16;5020332;28;20029;-72
2022/04/06 10:08:06;;;;;;;26.80;3.38;;;;;;;10.70;100.00;99996.56;5016782;28;20053;-73
2022/04/06 10:10:33;;;;;;;19.95;3.15;;;;;;;10.64;100.00;99996.53;4995479;28;20065;-72
2022/04/06 10:12:59;;;;;;;26.42;3.25;;;;;;;10.63;100.00;99993.03;5009772;28;20034;-73
2022/04/06 10:15:25;;;;;;;21.35;3.85;;;;;;;10.65;100.00;99986.88;5013430;28;20026;-69
2022/04/06 10:17:51;;;;;;;18.95;3.03;;;;;;;10.69;100.00;99999.16;5016620;28;20044;-70
2022/04/06 10:20:35;;;;;;;22.75;4.30;;;;;;;10.66;100.00;99989.50;5015175;28;20042;-69
2022/04/06 10:23:12;;;;;;;;;;;;;;;10.56;100.00;99988.63;5011634;28;20069;-72
2022/04/06 10:26:08;;;;;;;13.85;2.70;;;;;;;10.54;100.00;99985.13;5012124;28;20007;-73
2022/04/06 10:28:34;;;;;;;19.52;3.67;;;;;;;10.55;100.00;99983.34;5011538;28;20025;-72
2022/04/06 10:31:11;;;;;;;13.68;2.97;;;;;;;10.55;100.00;100001.78;5012572;28;20037;-72
2022/04/06 10:33:37;;;;;;;16.13;2.30;;;;;;;10.61;100.00;99980.75;5012843;28;20103;-73
2022/04/06 10:36:16;;;;;;;10.55;2.20;;;;;;;10.74;100.00;99964.13;5017193;28;20470;-72
2022/04/06 10:39:08;;;;;;;12.60;2.08;;;;;;;10.78;100.00;99968.50;5004233;28;20482;-72
2022/04/06 10:41:38;;;;;;;15.68;2.50;;;;;;;10.82;100.00;99952.72;5012124;28;20041;-72
2022/04/06 10:44:03;;;;;;;11.05;2.50;;;;;;;11.01;100.00;99954.47;5012415;28;20030;-74
2022/04/06 10:46:34;;;;;;;14.40;2.08;;;;;;;11.12;100.00;99950.09;5020343;28;20032;-73
2022/04/06 10:49:09;;;;;;;19.30;2.55;;;;;;;11.13;100.00;99949.22;5021679;28;20030;-72
2022/04/06 10:51:37;;;;;;;14.55;2.30;;;;;;;11.04;100.00;99949.22;5010439;28;20112;-73
2022/04/06 10:54:11;;;;;;;19.55;3.00;;;;;;;11.06;100.00;99951.88;5009367;28;20056;-71
2022/04/06 10:56:46;;;;;;;11.50;2.72;;;;;;;11.03;100.00;99944.84;5017240;28;20091;-73
2022/04/06 10:59:15;;;;;;;11.45;2.30;;;;;;;10.93;100.00;99951.88;5021801;28;20041;-73
2022/04/06 11:01:46;;;;;;;14.68;2.65;;;;;;;10.91;100.00;99952.72;5015914;28;20022;-73
2022/04/06 11:04:24;;;;;;;14.40;2.70;;;;;;;10.94;100.00;99952.72;4999660;28;20041;-73
2022/04/06 11:07:13;;;;;;;11.50;2.70;;;;;;;10.92;100.00;99959.72;5021241;28;20425;-73
2022/04/06 11:12:31;;;;;;;10.65;2.50;;;;;;;10.85;100.00;99944.81;5015505;28;20033;-72
2022/04/06 11:14:59;;;;;;;11.52;2.83;;;;;;;10.83;100.00;99933.44;5013230;28;20113;-72
2022/04/06 11:20:06;;;;;;;9.20;2.38;;;;;;;10.89;100.00;99936.03;5014092;28;20425;-73
2022/04/06 11:22:32;;;;;;;8.55;2.20;;;;;;;10.80;100.00;99932.53;5013760;28;20107;-73
2022/04/06 11:24:59;;;;;;;8.70;2.50;;;;;;;10.79;100.00;99956.22;5016287;28;20022;-74
2022/04/06 11:27:35;;;;;;;7.85;2.53;;;;;;;10.76;100.00;99930.78;5017401;28;20389;-73
2022/04/06 11:30:12;;;;;;;9.90;2.70;;;;;;;10.73;100.00;99930.78;5017238;28;20447;-73
2022/04/06 11:32:39;;;;;;;6.63;1.80;;;;;;;10.68;100.00;99935.16;5001241;28;20034;-73